sensor_id;sensor_type;location;lat;lon;timestamp;P1;durP1;ratioP1;P2;durP2;ratioP2
7531;SDS011;3807;49.030;8.714;2022-08-19T00:01:49;14.73;;;11.55;;
7531;SDS011;3807;49.030;8.714;2022-08-19T00:04:17;16.73;;;11.65;;
7531;SDS011;3807;49.030;8.714;2022-08-19T00:06:44;16.98;;;12.07;;
7531;SDS011;3807;49.030;8.714;2022-08-19T00:09:13;14.30;;;11.23;;
7531;SDS011;3807;49.030;8.714;2022-08-19T00:11:40;15.88;;;11.55;;
7531;SDS011;3807;49.030;8.714;2022-08-19T00:14:06;17.25;;;12.43;;
7531;SDS011;3807;49.030;8.714;2022-08-19T00:16:34;19.75;;;12.50;;
7531;SDS011;3807;49.030;8.714;2022-08-19T00:19:01;15.13;;;11.75;;
7531;SDS011;3807;49.030;8.714;2022-08-19T00:21:26;17.17;;;12.85;;
7531;SDS011;3807;49.030;8.714;2022-08-19T00:23:52;19.15;;;13.43;;
7531;SDS011;3807;49.030;8.714;2022-08-19T00:26:18;14.95;;;11.68;;
7531;SDS011;3807;49.030;8.714;2022-08-19T00:28:45;16.65;;;11.27;;
7531;SDS011;3807;49.030;8.714;2022-08-19T00:31:11;15.02;;;11.75;;
7531;SDS011;3807;49.030;8.714;2022-08-19T00:33:36;15.32;;;11.45;;
7531;SDS011;3807;49.030;8.714;2022-08-19T00:36:03;15.05;;;11.77;;
7531;SDS011;3807;49.030;8.714;2022-08-19T00:38:31;14.30;;;11.70;;
7531;SDS011;3807;49.030;8.714;2022-08-19T00:40:57;17.12;;;13.05;;
7531;SDS011;3807;49.030;8.714;2022-08-19T00:43:24;15.10;;;12.32;;
7531;SDS011;3807;49.030;8.714;2022-08-19T00:45:51;15.57;;;11.27;;
7531;SDS011;3807;49.030;8.714;2022-08-19T00:48:17;16.55;;;12.25;;
7531;SDS011;3807;49.030;8.714;2022-08-19T00:50:44;18.00;;;13.50;;
7531;SDS011;3807;49.030;8.714;2022-08-19T00:53:11;16.80;;;13.27;;
7531;SDS011;3807;49.030;8.714;2022-08-19T00:55:40;19.67;;;12.32;;
7531;SDS011;3807;49.030;8.714;2022-08-19T00:58:08;15.27;;;11.65;;
7531;SDS011;3807;49.030;8.714;2022-08-19T01:00:37;16.90;;;12.75;;
7531;SDS011;3807;49.030;8.714;2022-08-19T01:03:05;17.05;;;13.43;;
7531;SDS011;3807;49.030;8.714;2022-08-19T01:05:32;18.20;;;13.05;;
7531;SDS011;3807;49.030;8.714;2022-08-19T01:08:00;17.73;;;13.43;;
7531;SDS011;3807;49.030;8.714;2022-08-19T01:10:29;18.23;;;14.07;;
7531;SDS011;3807;49.030;8.714;2022-08-19T01:12:58;18.55;;;14.30;;
7531;SDS011;3807;49.030;8.714;2022-08-19T01:15:27;20.12;;;13.73;;
7531;SDS011;3807;49.030;8.714;2022-08-19T01:17:56;17.15;;;13.77;;
7531;SDS011;3807;49.030;8.714;2022-08-19T01:20:25;17.65;;;13.32;;
7531;SDS011;3807;49.030;8.714;2022-08-19T01:22:52;18.55;;;14.52;;
7531;SDS011;3807;49.030;8.714;2022-08-19T01:25:20;20.40;;;14.23;;
7531;SDS011;3807;49.030;8.714;2022-08-19T01:27:49;17.73;;;13.80;;
7531;SDS011;3807;49.030;8.714;2022-08-19T01:30:17;16.92;;;13.70;;
7531;SDS011;3807;49.030;8.714;2022-08-19T01:32:47;17.67;;;13.18;;
7531;SDS011;3807;49.030;8.714;2022-08-19T01:35:13;19.30;;;14.02;;
7531;SDS011;3807;49.030;8.714;2022-08-19T01:37:54;15.85;;;13.13;;
7531;SDS011;3807;49.030;8.714;2022-08-19T01:40:29;17.98;;;14.27;;
7531;SDS011;3807;49.030;8.714;2022-08-19T01:42:56;18.62;;;13.68;;
7531;SDS011;3807;49.030;8.714;2022-08-19T01:45:23;17.37;;;13.30;;
7531;SDS011;3807;49.030;8.714;2022-08-19T01:47:50;20.25;;;13.32;;
7531;SDS011;3807;49.030;8.714;2022-08-19T01:50:15;18.48;;;13.60;;
7531;SDS011;3807;49.030;8.714;2022-08-19T01:52:41;20.02;;;14.73;;
7531;SDS011;3807;49.030;8.714;2022-08-19T01:55:09;17.50;;;14.18;;
7531;SDS011;3807;49.030;8.714;2022-08-19T01:57:40;19.33;;;14.50;;
7531;SDS011;3807;49.030;8.714;2022-08-19T02:00:09;18.77;;;14.15;;
7531;SDS011;3807;49.030;8.714;2022-08-19T02:02:37;18.87;;;13.48;;
7531;SDS011;3807;49.030;8.714;2022-08-19T02:05:03;16.73;;;13.10;;
7531;SDS011;3807;49.030;8.714;2022-08-19T02:07:28;18.60;;;14.27;;
7531;SDS011;3807;49.030;8.714;2022-08-19T02:09:54;18.45;;;14.10;;
7531;SDS011;3807;49.030;8.714;2022-08-19T02:12:20;17.58;;;14.40;;
7531;SDS011;3807;49.030;8.714;2022-08-19T02:14:46;16.58;;;13.57;;
7531;SDS011;3807;49.030;8.714;2022-08-19T02:17:11;19.83;;;13.38;;
7531;SDS011;3807;49.030;8.714;2022-08-19T02:19:37;18.52;;;14.23;;
7531;SDS011;3807;49.030;8.714;2022-08-19T02:22:02;17.02;;;13.70;;
7531;SDS011;3807;49.030;8.714;2022-08-19T02:24:28;17.33;;;15.05;;
7531;SDS011;3807;49.030;8.714;2022-08-19T02:26:54;18.35;;;13.13;;
7531;SDS011;3807;49.030;8.714;2022-08-19T02:29:19;19.52;;;15.13;;
7531;SDS011;3807;49.030;8.714;2022-08-19T02:31:45;18.10;;;14.23;;
7531;SDS011;3807;49.030;8.714;2022-08-19T02:34:10;17.95;;;14.38;;
7531;SDS011;3807;49.030;8.714;2022-08-19T02:36:35;17.05;;;14.70;;
7531;SDS011;3807;49.030;8.714;2022-08-19T02:39:01;18.58;;;15.05;;
7531;SDS011;3807;49.030;8.714;2022-08-19T02:41:29;19.15;;;14.73;;
7531;SDS011;3807;49.030;8.714;2022-08-19T02:43:57;19.20;;;14.40;;
7531;SDS011;3807;49.030;8.714;2022-08-19T02:46:25;19.08;;;14.48;;
7531;SDS011;3807;49.030;8.714;2022-08-19T02:48:52;19.35;;;15.23;;
7531;SDS011;3807;49.030;8.714;2022-08-19T02:51:24;18.60;;;15.02;;
7531;SDS011;3807;49.030;8.714;2022-08-19T02:53:51;21.65;;;14.75;;
7531;SDS011;3807;49.030;8.714;2022-08-19T02:56:17;21.37;;;14.63;;
7531;SDS011;3807;49.030;8.714;2022-08-19T02:58:43;18.62;;;14.73;;
7531;SDS011;3807;49.030;8.714;2022-08-19T03:01:10;18.17;;;14.27;;
7531;SDS011;3807;49.030;8.714;2022-08-19T03:03:36;18.60;;;14.85;;
7531;SDS011;3807;49.030;8.714;2022-08-19T03:06:03;18.80;;;15.43;;
7531;SDS011;3807;49.030;8.714;2022-08-19T03:08:31;18.30;;;15.00;;
7531;SDS011;3807;49.030;8.714;2022-08-19T03:10:56;18.15;;;15.07;;
7531;SDS011;3807;49.030;8.714;2022-08-19T03:13:21;22.35;;;15.55;;
7531;SDS011;3807;49.030;8.714;2022-08-19T03:15:48;20.50;;;14.73;;
7531;SDS011;3807;49.030;8.714;2022-08-19T03:18:13;17.62;;;13.68;;
7531;SDS011;3807;49.030;8.714;2022-08-19T03:20:47;18.95;;;14.80;;
7531;SDS011;3807;49.030;8.714;2022-08-19T03:23:14;17.35;;;14.10;;
7531;SDS011;3807;49.030;8.714;2022-08-19T03:25:41;17.90;;;15.10;;
7531;SDS011;3807;49.030;8.714;2022-08-19T03:28:08;20.62;;;15.07;;
7531;SDS011;3807;49.030;8.714;2022-08-19T03:30:35;18.05;;;14.55;;
7531;SDS011;3807;49.030;8.714;2022-08-19T03:33:01;20.10;;;14.38;;
7531;SDS011;3807;49.030;8.714;2022-08-19T03:35:27;18.17;;;13.27;;
7531;SDS011;3807;49.030;8.714;2022-08-19T03:37:52;17.67;;;14.48;;
7531;SDS011;3807;49.030;8.714;2022-08-19T03:40:18;17.83;;;14.68;;
7531;SDS011;3807;49.030;8.714;2022-08-19T03:42:44;22.65;;;16.02;;
7531;SDS011;3807;49.030;8.714;2022-08-19T03:45:11;18.77;;;14.07;;
7531;SDS011;3807;49.030;8.714;2022-08-19T03:47:36;19.62;;;14.82;;
7531;SDS011;3807;49.030;8.714;2022-08-19T03:50:03;19.80;;;14.93;;
7531;SDS011;3807;49.030;8.714;2022-08-19T03:52:29;17.75;;;13.00;;
7531;SDS011;3807;49.030;8.714;2022-08-19T03:54:55;19.73;;;15.85;;
7531;SDS011;3807;49.030;8.714;2022-08-19T03:57:20;18.77;;;15.45;;
7531;SDS011;3807;49.030;8.714;2022-08-19T03:59:45;20.10;;;15.75;;
7531;SDS011;3807;49.030;8.714;2022-08-19T04:02:11;16.00;;;13.75;;
7531;SDS011;3807;49.030;8.714;2022-08-19T04:04:38;20.42;;;16.42;;
7531;SDS011;3807;49.030;8.714;2022-08-19T04:07:05;18.87;;;15.07;;
7531;SDS011;3807;49.030;8.714;2022-08-19T04:09:30;18.30;;;15.35;;
7531;SDS011;3807;49.030;8.714;2022-08-19T04:11:58;21.15;;;15.63;;
7531;SDS011;3807;49.030;8.714;2022-08-19T04:14:25;21.17;;;15.32;;
7531;SDS011;3807;49.030;8.714;2022-08-19T04:16:54;22.80;;;15.57;;
7531;SDS011;3807;49.030;8.714;2022-08-19T04:19:20;23.65;;;16.02;;
7531;SDS011;3807;49.030;8.714;2022-08-19T04:21:48;22.77;;;14.82;;
7531;SDS011;3807;49.030;8.714;2022-08-19T04:24:15;20.58;;;15.20;;
7531;SDS011;3807;49.030;8.714;2022-08-19T04:26:41;19.02;;;14.77;;
7531;SDS011;3807;49.030;8.714;2022-08-19T04:29:10;19.52;;;15.75;;
7531;SDS011;3807;49.030;8.714;2022-08-19T04:31:38;21.67;;;15.48;;
7531;SDS011;3807;49.030;8.714;2022-08-19T04:34:06;20.73;;;14.98;;
7531;SDS011;3807;49.030;8.714;2022-08-19T04:36:36;25.02;;;17.00;;
7531;SDS011;3807;49.030;8.714;2022-08-19T04:39:04;19.30;;;16.23;;
7531;SDS011;3807;49.030;8.714;2022-08-19T04:41:32;20.90;;;15.55;;
7531;SDS011;3807;49.030;8.714;2022-08-19T04:44:16;23.15;;;16.27;;
7531;SDS011;3807;49.030;8.714;2022-08-19T04:46:46;20.90;;;16.77;;
7531;SDS011;3807;49.030;8.714;2022-08-19T04:49:17;22.50;;;16.45;;
7531;SDS011;3807;49.030;8.714;2022-08-19T04:51:45;23.98;;;16.10;;
7531;SDS011;3807;49.030;8.714;2022-08-19T04:54:15;20.60;;;16.73;;
7531;SDS011;3807;49.030;8.714;2022-08-19T04:56:41;17.80;;;14.95;;
7531;SDS011;3807;49.030;8.714;2022-08-19T04:59:07;18.40;;;14.90;;
7531;SDS011;3807;49.030;8.714;2022-08-19T05:01:33;18.30;;;14.85;;
7531;SDS011;3807;49.030;8.714;2022-08-19T05:04:01;21.50;;;15.90;;
7531;SDS011;3807;49.030;8.714;2022-08-19T05:06:29;19.55;;;15.10;;
7531;SDS011;3807;49.030;8.714;2022-08-19T05:08:57;22.05;;;15.57;;
7531;SDS011;3807;49.030;8.714;2022-08-19T05:11:25;20.33;;;15.85;;
7531;SDS011;3807;49.030;8.714;2022-08-19T05:13:52;19.65;;;14.60;;
7531;SDS011;3807;49.030;8.714;2022-08-19T05:16:19;19.35;;;15.45;;
7531;SDS011;3807;49.030;8.714;2022-08-19T05:18:47;21.73;;;14.85;;
7531;SDS011;3807;49.030;8.714;2022-08-19T05:21:32;21.65;;;14.23;;
7531;SDS011;3807;49.030;8.714;2022-08-19T05:24:17;17.40;;;13.98;;
7531;SDS011;3807;49.030;8.714;2022-08-19T05:26:44;19.25;;;15.88;;
7531;SDS011;3807;49.030;8.714;2022-08-19T05:29:12;18.70;;;14.63;;
7531;SDS011;3807;49.030;8.714;2022-08-19T05:31:40;20.10;;;14.73;;
7531;SDS011;3807;49.030;8.714;2022-08-19T05:34:06;21.83;;;15.00;;
7531;SDS011;3807;49.030;8.714;2022-08-19T05:36:36;19.08;;;15.10;;
7531;SDS011;3807;49.030;8.714;2022-08-19T05:39:07;21.83;;;14.75;;
7531;SDS011;3807;49.030;8.714;2022-08-19T05:41:35;20.15;;;15.43;;
7531;SDS011;3807;49.030;8.714;2022-08-19T05:44:01;18.27;;;14.75;;
7531;SDS011;3807;49.030;8.714;2022-08-19T05:46:31;18.65;;;14.35;;
7531;SDS011;3807;49.030;8.714;2022-08-19T05:48:56;18.92;;;14.45;;
7531;SDS011;3807;49.030;8.714;2022-08-19T05:51:22;19.05;;;13.80;;
7531;SDS011;3807;49.030;8.714;2022-08-19T05:53:49;16.98;;;13.77;;
7531;SDS011;3807;49.030;8.714;2022-08-19T05:56:15;22.17;;;15.63;;
7531;SDS011;3807;49.030;8.714;2022-08-19T05:58:42;17.52;;;13.77;;
7531;SDS011;3807;49.030;8.714;2022-08-19T06:01:10;17.25;;;14.10;;
7531;SDS011;3807;49.030;8.714;2022-08-19T06:03:38;16.08;;;13.85;;
7531;SDS011;3807;49.030;8.714;2022-08-19T06:06:05;17.60;;;14.10;;
7531;SDS011;3807;49.030;8.714;2022-08-19T06:08:32;17.58;;;14.00;;
7531;SDS011;3807;49.030;8.714;2022-08-19T06:11:11;16.33;;;13.32;;
7531;SDS011;3807;49.030;8.714;2022-08-19T06:13:59;18.12;;;14.20;;
7531;SDS011;3807;49.030;8.714;2022-08-19T06:16:27;17.12;;;14.23;;
7531;SDS011;3807;49.030;8.714;2022-08-19T06:18:53;17.15;;;13.02;;
7531;SDS011;3807;49.030;8.714;2022-08-19T06:21:22;20.00;;;13.70;;
7531;SDS011;3807;49.030;8.714;2022-08-19T06:23:50;18.37;;;14.10;;
7531;SDS011;3807;49.030;8.714;2022-08-19T06:26:17;18.05;;;14.63;;
7531;SDS011;3807;49.030;8.714;2022-08-19T06:28:43;19.98;;;13.57;;
7531;SDS011;3807;49.030;8.714;2022-08-19T06:31:11;18.30;;;13.18;;
7531;SDS011;3807;49.030;8.714;2022-08-19T06:33:39;16.25;;;13.70;;
7531;SDS011;3807;49.030;8.714;2022-08-19T06:36:05;17.87;;;13.18;;
7531;SDS011;3807;49.030;8.714;2022-08-19T06:38:31;26.30;;;14.98;;
7531;SDS011;3807;49.030;8.714;2022-08-19T06:41:04;20.37;;;13.73;;
7531;SDS011;3807;49.030;8.714;2022-08-19T06:43:30;17.67;;;12.93;;
7531;SDS011;3807;49.030;8.714;2022-08-19T06:45:55;20.83;;;13.80;;
7531;SDS011;3807;49.030;8.714;2022-08-19T06:48:21;21.45;;;13.77;;
7531;SDS011;3807;49.030;8.714;2022-08-19T06:50:47;19.65;;;13.52;;
7531;SDS011;3807;49.030;8.714;2022-08-19T06:53:14;17.58;;;13.52;;
7531;SDS011;3807;49.030;8.714;2022-08-19T06:55:40;16.48;;;13.43;;
7531;SDS011;3807;49.030;8.714;2022-08-19T06:58:05;17.90;;;13.18;;
7531;SDS011;3807;49.030;8.714;2022-08-19T07:00:31;14.95;;;12.10;;
7531;SDS011;3807;49.030;8.714;2022-08-19T07:02:57;20.23;;;12.37;;
7531;SDS011;3807;49.030;8.714;2022-08-19T07:05:23;15.63;;;12.48;;
7531;SDS011;3807;49.030;8.714;2022-08-19T07:07:48;18.60;;;12.73;;
7531;SDS011;3807;49.030;8.714;2022-08-19T07:10:14;18.48;;;12.82;;
7531;SDS011;3807;49.030;8.714;2022-08-19T07:12:40;17.48;;;12.50;;
7531;SDS011;3807;49.030;8.714;2022-08-19T07:15:06;16.30;;;13.40;;
7531;SDS011;3807;49.030;8.714;2022-08-19T07:17:33;14.80;;;13.20;;
7531;SDS011;3807;49.030;8.714;2022-08-19T07:20:02;15.68;;;13.10;;
7531;SDS011;3807;49.030;8.714;2022-08-19T07:22:28;15.18;;;12.23;;
7531;SDS011;3807;49.030;8.714;2022-08-19T07:24:54;16.58;;;12.95;;
7531;SDS011;3807;49.030;8.714;2022-08-19T07:27:19;14.55;;;11.25;;
7531;SDS011;3807;49.030;8.714;2022-08-19T07:29:45;18.58;;;11.38;;
7531;SDS011;3807;49.030;8.714;2022-08-19T07:32:10;15.88;;;11.43;;
7531;SDS011;3807;49.030;8.714;2022-08-19T07:34:36;17.98;;;12.05;;
7531;SDS011;3807;49.030;8.714;2022-08-19T07:37:03;14.30;;;12.23;;
7531;SDS011;3807;49.030;8.714;2022-08-19T07:39:31;20.90;;;12.45;;
7531;SDS011;3807;49.030;8.714;2022-08-19T07:41:58;17.58;;;11.93;;
7531;SDS011;3807;49.030;8.714;2022-08-19T07:44:26;15.15;;;11.68;;
7531;SDS011;3807;49.030;8.714;2022-08-19T07:46:53;15.90;;;12.57;;
7531;SDS011;3807;49.030;8.714;2022-08-19T07:49:21;17.40;;;12.07;;
7531;SDS011;3807;49.030;8.714;2022-08-19T07:51:51;13.90;;;11.75;;
7531;SDS011;3807;49.030;8.714;2022-08-19T07:54:18;15.35;;;10.70;;
7531;SDS011;3807;49.030;8.714;2022-08-19T07:56:45;13.85;;;11.88;;
7531;SDS011;3807;49.030;8.714;2022-08-19T07:59:11;13.70;;;10.95;;
7531;SDS011;3807;49.030;8.714;2022-08-19T08:01:37;17.27;;;11.25;;
7531;SDS011;3807;49.030;8.714;2022-08-19T08:04:05;20.42;;;12.20;;
7531;SDS011;3807;49.030;8.714;2022-08-19T08:06:51;17.12;;;11.73;;
7531;SDS011;3807;49.030;8.714;2022-08-19T08:09:37;13.20;;;11.25;;
7531;SDS011;3807;49.030;8.714;2022-08-19T08:12:06;14.13;;;10.70;;
7531;SDS011;3807;49.030;8.714;2022-08-19T08:14:38;15.52;;;11.07;;
7531;SDS011;3807;49.030;8.714;2022-08-19T08:17:07;12.60;;;10.70;;
7531;SDS011;3807;49.030;8.714;2022-08-19T08:19:33;12.82;;;10.20;;
7531;SDS011;3807;49.030;8.714;2022-08-19T08:21:59;16.67;;;11.70;;
7531;SDS011;3807;49.030;8.714;2022-08-19T08:24:26;17.52;;;10.57;;
7531;SDS011;3807;49.030;8.714;2022-08-19T08:26:53;14.45;;;10.23;;
7531;SDS011;3807;49.030;8.714;2022-08-19T08:29:19;20.25;;;9.90;;
7531;SDS011;3807;49.030;8.714;2022-08-19T08:31:44;14.73;;;10.30;;
7531;SDS011;3807;49.030;8.714;2022-08-19T08:34:11;14.43;;;9.77;;
7531;SDS011;3807;49.030;8.714;2022-08-19T08:36:39;10.77;;;8.40;;
7531;SDS011;3807;49.030;8.714;2022-08-19T08:39:10;11.75;;;9.50;;
7531;SDS011;3807;49.030;8.714;2022-08-19T08:41:54;13.00;;;9.75;;
7531;SDS011;3807;49.030;8.714;2022-08-19T08:47:01;12.73;;;10.27;;
7531;SDS011;3807;49.030;8.714;2022-08-19T08:52:28;11.32;;;9.25;;
7531;SDS011;3807;49.030;8.714;2022-08-19T08:55:00;18.00;;;9.63;;
7531;SDS011;3807;49.030;8.714;2022-08-19T08:57:39;14.50;;;9.93;;
7531;SDS011;3807;49.030;8.714;2022-08-19T09:00:19;14.73;;;9.23;;
7531;SDS011;3807;49.030;8.714;2022-08-19T09:02:49;12.00;;;9.05;;
7531;SDS011;3807;49.030;8.714;2022-08-19T09:05:14;16.55;;;9.38;;
7531;SDS011;3807;49.030;8.714;2022-08-19T09:16:18;12.27;;;9.40;;
7531;SDS011;3807;49.030;8.714;2022-08-19T09:18:51;11.25;;;8.98;;
7531;SDS011;3807;49.030;8.714;2022-08-19T09:21:19;11.88;;;8.20;;
7531;SDS011;3807;49.030;8.714;2022-08-19T09:23:47;11.85;;;8.25;;
7531;SDS011;3807;49.030;8.714;2022-08-19T09:26:14;10.00;;;8.63;;
7531;SDS011;3807;49.030;8.714;2022-08-19T09:28:42;10.25;;;7.93;;
7531;SDS011;3807;49.030;8.714;2022-08-19T09:31:11;10.23;;;7.37;;
7531;SDS011;3807;49.030;8.714;2022-08-19T09:33:38;9.82;;;7.03;;
7531;SDS011;3807;49.030;8.714;2022-08-19T09:36:07;12.15;;;6.60;;
7531;SDS011;3807;49.030;8.714;2022-08-19T09:38:35;11.50;;;7.00;;
7531;SDS011;3807;49.030;8.714;2022-08-19T09:41:05;8.35;;;7.45;;
7531;SDS011;3807;49.030;8.714;2022-08-19T09:43:31;8.85;;;7.45;;
7531;SDS011;3807;49.030;8.714;2022-08-19T09:45:58;10.25;;;6.93;;
7531;SDS011;3807;49.030;8.714;2022-08-19T09:48:25;9.98;;;6.30;;
7531;SDS011;3807;49.030;8.714;2022-08-19T09:50:51;7.12;;;6.40;;
7531;SDS011;3807;49.030;8.714;2022-08-19T09:53:16;8.85;;;6.37;;
7531;SDS011;3807;49.030;8.714;2022-08-19T09:55:42;10.13;;;6.10;;
7531;SDS011;3807;49.030;8.714;2022-08-19T09:58:08;8.23;;;6.05;;
7531;SDS011;3807;49.030;8.714;2022-08-19T10:00:34;9.82;;;6.10;;
7531;SDS011;3807;49.030;8.714;2022-08-19T10:03:02;8.32;;;6.30;;
7531;SDS011;3807;49.030;8.714;2022-08-19T10:05:27;7.50;;;5.72;;
7531;SDS011;3807;49.030;8.714;2022-08-19T10:08:11;8.60;;;5.65;;
7531;SDS011;3807;49.030;8.714;2022-08-19T10:10:37;10.30;;;6.40;;
7531;SDS011;3807;49.030;8.714;2022-08-19T10:13:02;8.48;;;6.25;;
7531;SDS011;3807;49.030;8.714;2022-08-19T10:15:29;9.10;;;5.75;;
7531;SDS011;3807;49.030;8.714;2022-08-19T10:17:54;8.20;;;6.32;;
7531;SDS011;3807;49.030;8.714;2022-08-19T10:20:20;13.93;;;6.22;;
7531;SDS011;3807;49.030;8.714;2022-08-19T10:22:47;6.68;;;5.90;;
7531;SDS011;3807;49.030;8.714;2022-08-19T10:25:12;8.25;;;5.32;;
7531;SDS011;3807;49.030;8.714;2022-08-19T10:27:40;6.50;;;5.00;;
7531;SDS011;3807;49.030;8.714;2022-08-19T10:30:05;7.53;;;4.75;;
7531;SDS011;3807;49.030;8.714;2022-08-19T10:32:31;9.45;;;4.32;;
7531;SDS011;3807;49.030;8.714;2022-08-19T10:34:56;13.30;;;4.05;;
7531;SDS011;3807;49.030;8.714;2022-08-19T10:37:22;6.55;;;4.95;;
7531;SDS011;3807;49.030;8.714;2022-08-19T10:39:47;5.62;;;4.90;;
7531;SDS011;3807;49.030;8.714;2022-08-19T10:42:13;6.65;;;4.62;;
7531;SDS011;3807;49.030;8.714;2022-08-19T10:44:38;7.32;;;4.90;;
7531;SDS011;3807;49.030;8.714;2022-08-19T10:47:04;6.53;;;4.53;;
7531;SDS011;3807;49.030;8.714;2022-08-19T10:49:30;7.93;;;4.80;;
7531;SDS011;3807;49.030;8.714;2022-08-19T10:51:57;9.25;;;4.82;;
7531;SDS011;3807;49.030;8.714;2022-08-19T10:54:41;4.82;;;4.32;;
7531;SDS011;3807;49.030;8.714;2022-08-19T10:57:25;5.70;;;5.10;;
7531;SDS011;3807;49.030;8.714;2022-08-19T10:59:54;6.03;;;5.07;;
7531;SDS011;3807;49.030;8.714;2022-08-19T11:02:20;5.28;;;3.83;;
7531;SDS011;3807;49.030;8.714;2022-08-19T11:04:46;7.40;;;5.12;;
7531;SDS011;3807;49.030;8.714;2022-08-19T11:07:14;6.05;;;4.70;;
7531;SDS011;3807;49.030;8.714;2022-08-19T11:09:40;7.90;;;4.60;;
7531;SDS011;3807;49.030;8.714;2022-08-19T11:12:07;5.55;;;5.05;;
7531;SDS011;3807;49.030;8.714;2022-08-19T11:14:34;8.52;;;5.60;;
7531;SDS011;3807;49.030;8.714;2022-08-19T11:17:00;4.95;;;4.37;;
7531;SDS011;3807;49.030;8.714;2022-08-19T11:19:27;5.35;;;4.80;;
7531;SDS011;3807;49.030;8.714;2022-08-19T11:21:52;8.10;;;5.03;;
7531;SDS011;3807;49.030;8.714;2022-08-19T11:24:20;6.80;;;5.07;;
7531;SDS011;3807;49.030;8.714;2022-08-19T11:26:48;6.30;;;4.28;;
7531;SDS011;3807;49.030;8.714;2022-08-19T11:29:16;5.03;;;4.57;;
7531;SDS011;3807;49.030;8.714;2022-08-19T11:31:44;6.32;;;5.05;;
7531;SDS011;3807;49.030;8.714;2022-08-19T11:34:12;5.57;;;4.95;;
7531;SDS011;3807;49.030;8.714;2022-08-19T11:36:42;10.20;;;5.50;;
7531;SDS011;3807;49.030;8.714;2022-08-19T11:39:10;7.50;;;4.90;;
7531;SDS011;3807;49.030;8.714;2022-08-19T11:41:37;7.82;;;5.40;;
7531;SDS011;3807;49.030;8.714;2022-08-19T11:44:02;7.25;;;4.93;;
7531;SDS011;3807;49.030;8.714;2022-08-19T11:46:29;5.18;;;4.68;;
7531;SDS011;3807;49.030;8.714;2022-08-19T11:48:59;11.35;;;5.55;;
7531;SDS011;3807;49.030;8.714;2022-08-19T11:51:25;6.28;;;5.10;;
7531;SDS011;3807;49.030;8.714;2022-08-19T11:53:55;7.20;;;5.55;;
7531;SDS011;3807;49.030;8.714;2022-08-19T11:56:21;5.40;;;4.47;;
7531;SDS011;3807;49.030;8.714;2022-08-19T11:58:49;5.50;;;4.20;;
7531;SDS011;3807;49.030;8.714;2022-08-19T12:01:15;8.40;;;4.95;;
7531;SDS011;3807;49.030;8.714;2022-08-19T12:03:44;5.40;;;4.90;;
7531;SDS011;3807;49.030;8.714;2022-08-19T12:06:11;9.43;;;4.65;;
7531;SDS011;3807;49.030;8.714;2022-08-19T12:08:40;6.07;;;5.15;;
7531;SDS011;3807;49.030;8.714;2022-08-19T12:11:06;8.75;;;5.37;;
7531;SDS011;3807;49.030;8.714;2022-08-19T12:13:35;5.82;;;4.75;;
7531;SDS011;3807;49.030;8.714;2022-08-19T12:16:06;6.55;;;4.85;;
7531;SDS011;3807;49.030;8.714;2022-08-19T12:18:35;7.65;;;5.03;;
7531;SDS011;3807;49.030;8.714;2022-08-19T12:21:01;5.65;;;4.40;;
7531;SDS011;3807;49.030;8.714;2022-08-19T12:23:26;6.93;;;5.60;;
7531;SDS011;3807;49.030;8.714;2022-08-19T12:25:51;8.60;;;5.05;;
7531;SDS011;3807;49.030;8.714;2022-08-19T12:28:21;5.45;;;4.95;;
7531;SDS011;3807;49.030;8.714;2022-08-19T12:30:48;7.12;;;4.28;;
7531;SDS011;3807;49.030;8.714;2022-08-19T12:33:16;5.07;;;4.18;;
7531;SDS011;3807;49.030;8.714;2022-08-19T12:35:43;6.37;;;4.57;;
7531;SDS011;3807;49.030;8.714;2022-08-19T12:38:11;5.43;;;4.68;;
7531;SDS011;3807;49.030;8.714;2022-08-19T12:40:37;5.80;;;4.82;;
7531;SDS011;3807;49.030;8.714;2022-08-19T12:43:04;4.97;;;4.57;;
7531;SDS011;3807;49.030;8.714;2022-08-19T12:45:30;4.97;;;4.57;;
7531;SDS011;3807;49.030;8.714;2022-08-19T12:47:56;5.57;;;4.95;;
7531;SDS011;3807;49.030;8.714;2022-08-19T12:50:21;5.75;;;4.07;;
7531;SDS011;3807;49.030;8.714;2022-08-19T12:52:46;5.82;;;4.55;;
7531;SDS011;3807;49.030;8.714;2022-08-19T12:55:13;8.95;;;4.87;;
7531;SDS011;3807;49.030;8.714;2022-08-19T12:57:39;5.68;;;4.82;;
7531;SDS011;3807;49.030;8.714;2022-08-19T13:02:50;7.53;;;4.10;;
7531;SDS011;3807;49.030;8.714;2022-08-19T13:05:18;7.03;;;4.70;;
7531;SDS011;3807;49.030;8.714;2022-08-19T13:07:47;6.78;;;4.45;;
7531;SDS011;3807;49.030;8.714;2022-08-19T13:10:14;5.00;;;4.20;;
7531;SDS011;3807;49.030;8.714;2022-08-19T13:12:47;4.93;;;3.92;;
7531;SDS011;3807;49.030;8.714;2022-08-19T13:15:14;5.28;;;4.07;;
7531;SDS011;3807;49.030;8.714;2022-08-19T13:17:45;5.07;;;4.57;;
7531;SDS011;3807;49.030;8.714;2022-08-19T13:20:13;6.40;;;4.28;;
7531;SDS011;3807;49.030;8.714;2022-08-19T13:22:39;4.50;;;4.10;;
7531;SDS011;3807;49.030;8.714;2022-08-19T13:25:05;7.20;;;3.70;;
7531;SDS011;3807;49.030;8.714;2022-08-19T13:27:32;5.28;;;3.85;;
7531;SDS011;3807;49.030;8.714;2022-08-19T13:29:57;5.72;;;4.60;;
7531;SDS011;3807;49.030;8.714;2022-08-19T13:32:42;5.65;;;4.35;;
7531;SDS011;3807;49.030;8.714;2022-08-19T13:35:26;5.05;;;4.53;;
7531;SDS011;3807;49.030;8.714;2022-08-19T13:37:51;7.15;;;4.70;;
7531;SDS011;3807;49.030;8.714;2022-08-19T13:40:18;5.72;;;5.07;;
7531;SDS011;3807;49.030;8.714;2022-08-19T13:42:48;6.72;;;5.20;;
7531;SDS011;3807;49.030;8.714;2022-08-19T13:45:16;4.97;;;4.47;;
7531;SDS011;3807;49.030;8.714;2022-08-19T13:47:44;5.37;;;4.85;;
7531;SDS011;3807;49.030;8.714;2022-08-19T13:50:15;6.70;;;4.68;;
7531;SDS011;3807;49.030;8.714;2022-08-19T13:52:43;6.22;;;5.25;;
7531;SDS011;3807;49.030;8.714;2022-08-19T13:55:09;7.10;;;5.47;;
7531;SDS011;3807;49.030;8.714;2022-08-19T13:57:36;9.18;;;5.50;;
7531;SDS011;3807;49.030;8.714;2022-08-19T14:00:04;5.82;;;5.32;;
7531;SDS011;3807;49.030;8.714;2022-08-19T14:02:33;6.57;;;5.93;;
7531;SDS011;3807;49.030;8.714;2022-08-19T14:04:58;7.85;;;5.65;;
7531;SDS011;3807;49.030;8.714;2022-08-19T14:07:23;6.05;;;5.22;;
7531;SDS011;3807;49.030;8.714;2022-08-19T14:09:49;9.52;;;5.78;;
7531;SDS011;3807;49.030;8.714;2022-08-19T14:12:18;6.05;;;5.45;;
7531;SDS011;3807;49.030;8.714;2022-08-19T14:14:45;8.38;;;5.50;;
7531;SDS011;3807;49.030;8.714;2022-08-19T14:17:11;4.60;;;4.18;;
7531;SDS011;3807;49.030;8.714;2022-08-19T14:19:36;6.60;;;4.68;;
7531;SDS011;3807;49.030;8.714;2022-08-19T14:22:01;5.62;;;4.37;;
7531;SDS011;3807;49.030;8.714;2022-08-19T14:24:27;4.95;;;4.50;;
7531;SDS011;3807;49.030;8.714;2022-08-19T14:26:52;5.37;;;4.72;;
7531;SDS011;3807;49.030;8.714;2022-08-19T14:29:18;6.55;;;4.85;;
7531;SDS011;3807;49.030;8.714;2022-08-19T14:31:43;5.28;;;4.82;;
7531;SDS011;3807;49.030;8.714;2022-08-19T14:34:09;5.00;;;4.60;;
7531;SDS011;3807;49.030;8.714;2022-08-19T14:36:35;5.25;;;4.37;;
7531;SDS011;3807;49.030;8.714;2022-08-19T14:39:01;5.53;;;4.65;;
7531;SDS011;3807;49.030;8.714;2022-08-19T14:41:26;4.72;;;4.32;;
7531;SDS011;3807;49.030;8.714;2022-08-19T14:43:52;6.35;;;4.87;;
7531;SDS011;3807;49.030;8.714;2022-08-19T14:46:20;5.62;;;4.68;;
7531;SDS011;3807;49.030;8.714;2022-08-19T14:48:47;5.00;;;4.50;;
7531;SDS011;3807;49.030;8.714;2022-08-19T14:51:14;4.72;;;4.15;;
7531;SDS011;3807;49.030;8.714;2022-08-19T14:53:40;9.48;;;3.60;;
7531;SDS011;3807;49.030;8.714;2022-08-19T14:56:12;4.28;;;3.60;;
7531;SDS011;3807;49.030;8.714;2022-08-19T14:58:40;6.18;;;3.67;;
7531;SDS011;3807;49.030;8.714;2022-08-19T15:01:07;4.28;;;3.87;;
7531;SDS011;3807;49.030;8.714;2022-08-19T15:03:33;4.00;;;3.33;;
7531;SDS011;3807;49.030;8.714;2022-08-19T15:05:59;5.07;;;3.25;;
7531;SDS011;3807;49.030;8.714;2022-08-19T15:08:26;4.47;;;3.97;;
7531;SDS011;3807;49.030;8.714;2022-08-19T15:10:53;6.35;;;4.03;;
7531;SDS011;3807;49.030;8.714;2022-08-19T15:13:20;4.43;;;3.83;;
7531;SDS011;3807;49.030;8.714;2022-08-19T15:15:46;6.07;;;4.07;;
7531;SDS011;3807;49.030;8.714;2022-08-19T15:18:13;4.10;;;3.70;;